Time,TemperatureF,DewpointF,PressureIn,WindDirection,WindDirectionDegrees,WindSpeedMPH,WindSpeedGustMPH,Humidity,HourlyPrecipIn,Conditions,Clouds,dailyrainin,SoftwareType,DateUTC
2013-11-12 00:01:00,20.0,6.0,-100.00,NW,305,4.0,7.0,53,-99.99,,,-99.99,,2013-11-12 06:01:00,
2013-11-12 00:22:00,20.0,6.0,-100.00,NW,305,4.0,7.0,53,-99.99,,,-99.99,,2013-11-12 06:22:00,
2013-11-12 00:32:00,20.0,6.0,-100.00,NW,305,4.0,7.0,53,-99.99,,,-99.99,,2013-11-12 06:32:00,
2013-11-12 00:42:00,20.0,6.0,-100.00,NW,305,4.0,7.0,53,-99.99,,,-99.99,,2013-11-12 06:42:00,
2013-11-12 00:52:00,20.0,6.0,-100.00,NW,305,4.0,7.0,53,-99.99,,,-99.99,,2013-11-12 06:52:00,
2013-11-12 01:01:00,19.0,6.0,-100.00,NW,310,3.0,7.0,57,-99.99,,,-99.99,,2013-11-12 07:01:00,
2013-11-12 01:22:00,19.0,6.0,-100.00,NW,310,3.0,7.0,57,-99.99,,,-99.99,,2013-11-12 07:22:00,
2013-11-12 01:32:00,19.0,6.0,-100.00,NW,310,3.0,7.0,57,-99.99,,,-99.99,,2013-11-12 07:32:00,
2013-11-12 01:42:00,19.0,6.0,-100.00,NW,310,3.0,7.0,57,-99.99,,,-99.99,,2013-11-12 07:42:00,
2013-11-12 01:52:00,19.0,6.0,-100.00,NW,310,3.0,7.0,57,-99.99,,,-99.99,,2013-11-12 07:52:00,
2013-11-12 02:22:00,18.0,7.0,-100.00,NW,305,4.0,9.0,60,-99.99,,,-99.99,,2013-11-12 08:22:00,
2013-11-12 02:32:00,18.0,7.0,-100.00,NW,305,4.0,9.0,60,-99.99,,,-99.99,,2013-11-12 08:32:00,
2013-11-12 02:42:00,18.0,7.0,-100.00,NW,305,4.0,9.0,60,-99.99,,,-99.99,,2013-11-12 08:42:00,
2013-11-12 02:52:00,18.0,7.0,-100.00,NW,305,4.0,9.0,60,-99.99,,,-99.99,,2013-11-12 08:52:00,
2013-11-12 03:01:00,18.0,7.0,-100.00,NW,315,6.0,9.0,63,-99.99,,,-99.99,,2013-11-12 09:01:00,
2013-11-12 03:02:00,18.0,7.0,-100.00,NW,305,4.0,9.0,60,-99.99,,,-99.99,,2013-11-12 09:02:00,
2013-11-12 03:22:00,18.0,7.0,-100.00,NW,315,6.0,9.0,63,-99.99,,,-99.99,,2013-11-12 09:22:00,
2013-11-12 03:33:00,18.0,7.0,-100.00,NW,315,6.0,9.0,63,-99.99,,,-99.99,,2013-11-12 09:33:00,
2013-11-12 03:42:00,18.0,7.0,-100.00,NW,315,6.0,9.0,63,-99.99,,,-99.99,,2013-11-12 09:42:00,
2013-11-12 03:53:00,18.0,7.0,-100.00,NW,315,6.0,9.0,63,-99.99,,,-99.99,,2013-11-12 09:53:00,
2013-11-12 04:01:00,17.0,7.0,-100.00,WNW,295,1.0,6.0,65,-99.99,,,-99.99,,2013-11-12 10:01:00,
2013-11-12 04:23:00,17.0,7.0,-100.00,WNW,295,1.0,6.0,65,-99.99,,,-99.99,,2013-11-12 10:23:00,
2013-11-12 04:33:00,17.0,7.0,-100.00,WNW,295,1.0,6.0,65,-99.99,,,-99.99,,2013-11-12 10:33:00,
2013-11-12 04:42:00,17.0,7.0,-100.00,WNW,295,1.0,6.0,65,-99.99,,,-99.99,,2013-11-12 10:42:00,
2013-11-12 04:53:00,17.0,7.0,-100.00,WNW,295,1.0,6.0,65,-99.99,,,-99.99,,2013-11-12 10:53:00,
2013-11-12 05:02:00,16.0,7.0,-100.00,NW,310,3.0,6.0,68,-99.99,,,-99.99,,2013-11-12 11:02:00,
2013-11-12 05:22:00,16.0,7.0,-100.00,NW,310,3.0,6.0,68,-99.99,,,-99.99,,2013-11-12 11:22:00,
2013-11-12 05:32:00,16.0,7.0,-100.00,NW,310,3.0,6.0,68,-99.99,,,-99.99,,2013-11-12 11:32:00,
2013-11-12 05:42:00,16.0,7.0,-100.00,NW,310,3.0,6.0,68,-99.99,,,-99.99,,2013-11-12 11:42:00,
2013-11-12 05:52:00,16.0,7.0,-100.00,NW,310,3.0,6.0,68,-99.99,,,-99.99,,2013-11-12 11:52:00,
2013-11-12 06:22:00,15.0,7.0,-100.00,West,265,2.0,6.0,71,-99.99,,,-99.99,,2013-11-12 12:22:00,
2013-11-12 06:32:00,15.0,7.0,-100.00,West,265,2.0,6.0,71,-99.99,,,-99.99,,2013-11-12 12:32:00,
2013-11-12 06:42:00,15.0,7.0,-100.00,West,265,2.0,6.0,71,-99.99,,,-99.99,,2013-11-12 12:42:00,
2013-11-12 06:52:00,15.0,7.0,-100.00,West,265,2.0,6.0,71,-99.99,,,-99.99,,2013-11-12 12:52:00,
2013-11-12 07:01:00,15.0,7.0,-100.00,West,265,2.0,6.0,71,-99.99,,,-99.99,,2013-11-12 13:01:00,
2013-11-12 07:02:00,14.0,8.0,-100.00,WNW,290,4.0,7.0,74,-99.99,,,-99.99,,2013-11-12 13:02:00,
2013-11-12 07:22:00,14.0,8.0,-100.00,WNW,290,4.0,7.0,74,-99.99,,,-99.99,,2013-11-12 13:22:00,
2013-11-12 07:32:00,14.0,8.0,-100.00,WNW,290,4.0,7.0,74,-99.99,,,-99.99,,2013-11-12 13:32:00,
2013-11-12 07:42:00,14.0,8.0,-100.00,WNW,290,4.0,7.0,74,-99.99,,,-99.99,,2013-11-12 13:42:00,
2013-11-12 07:52:00,14.0,8.0,-100.00,WNW,290,4.0,7.0,74,-99.99,,,-99.99,,2013-11-12 13:52:00,
2013-11-12 08:01:00,16.0,8.0,-100.00,NW,305,5.0,10.0,73,-99.99,,,-99.99,,2013-11-12 14:01:00,
2013-11-12 08:22:00,16.0,8.0,-100.00,NW,305,5.0,10.0,73,-99.99,,,-99.99,,2013-11-12 14:22:00,
2013-11-12 08:32:00,16.0,8.0,-100.00,NW,305,5.0,10.0,73,-99.99,,,-99.99,,2013-11-12 14:32:00,
2013-11-12 08:42:00,16.0,8.0,-100.00,NW,305,5.0,10.0,73,-99.99,,,-99.99,,2013-11-12 14:42:00,
2013-11-12 08:52:00,16.0,8.0,-100.00,NW,305,5.0,10.0,73,-99.99,,,-99.99,,2013-11-12 14:52:00,
2013-11-12 09:03:00,18.0,9.0,-100.00,NW,315,7.0,14.0,65,-99.99,,,-99.99,,2013-11-12 15:03:00,
2013-11-12 09:22:00,18.0,9.0,-100.00,NW,315,7.0,14.0,65,-99.99,,,-99.99,,2013-11-12 15:22:00,
2013-11-12 09:33:00,18.0,9.0,-100.00,NW,315,7.0,14.0,65,-99.99,,,-99.99,,2013-11-12 15:33:00,
2013-11-12 09:44:00,18.0,9.0,-100.00,NW,315,7.0,14.0,65,-99.99,,,-99.99,,2013-11-12 15:44:00,
2013-11-12 09:53:00,18.0,9.0,-100.00,NW,315,7.0,14.0,65,-99.99,,,-99.99,,2013-11-12 15:53:00,
2013-11-12 10:23:00,21.0,8.0,-100.00,West,280,6.0,13.0,55,-99.99,,,-99.99,,2013-11-12 16:23:00,
2013-11-12 10:33:00,21.0,8.0,-100.00,West,280,6.0,13.0,55,-99.99,,,-99.99,,2013-11-12 16:33:00,
2013-11-12 10:42:00,21.0,8.0,-100.00,West,280,6.0,13.0,55,-99.99,,,-99.99,,2013-11-12 16:42:00,
2013-11-12 10:53:00,21.0,8.0,-100.00,West,280,6.0,13.0,55,-99.99,,,-99.99,,2013-11-12 16:53:00,
2013-11-12 11:02:00,21.0,8.0,-100.00,West,280,6.0,13.0,55,-99.99,,,-99.99,,2013-11-12 17:02:00,
2013-11-12 11:23:00,24.0,6.0,-100.00,NW,325,6.0,12.0,45,-99.99,,,-99.99,,2013-11-12 17:23:00,
2013-11-12 11:33:00,24.0,6.0,-100.00,NW,325,6.0,12.0,45,-99.99,,,-99.99,,2013-11-12 17:33:00,
2013-11-12 11:43:00,24.0,6.0,-100.00,NW,325,6.0,12.0,45,-99.99,,,-99.99,,2013-11-12 17:43:00,
2013-11-12 11:52:00,24.0,6.0,-100.00,NW,325,6.0,12.0,45,-99.99,,,-99.99,,2013-11-12 17:52:00,
2013-11-12 12:01:00,24.0,6.0,-100.00,NW,325,6.0,12.0,45,-99.99,,,-99.99,,2013-11-12 18:01:00,
2013-11-12 12:23:00,25.0,3.0,-100.00,WNW,290,8.0,14.0,39,-99.99,,,-99.99,,2013-11-12 18:23:00,
2013-11-12 12:32:00,25.0,3.0,-100.00,WNW,290,8.0,14.0,39,-99.99,,,-99.99,,2013-11-12 18:32:00,
2013-11-12 12:42:00,25.0,3.0,-100.00,WNW,290,8.0,14.0,39,-99.99,,,-99.99,,2013-11-12 18:42:00,
2013-11-12 12:52:00,25.0,3.0,-100.00,WNW,290,8.0,14.0,39,-99.99,,,-99.99,,2013-11-12 18:52:00,
2013-11-12 13:01:00,25.0,3.0,-100.00,WNW,290,8.0,14.0,39,-99.99,,,-99.99,,2013-11-12 19:01:00,
2013-11-12 13:22:00,28.0,4.0,-100.00,WNW,300,6.0,12.0,36,-99.99,,,-99.99,,2013-11-12 19:22:00,
2013-11-12 13:32:00,28.0,4.0,-100.00,WNW,300,6.0,12.0,36,-99.99,,,-99.99,,2013-11-12 19:32:00,
2013-11-12 13:42:00,28.0,4.0,-100.00,WNW,300,6.0,12.0,36,-99.99,,,-99.99,,2013-11-12 19:42:00,
2013-11-12 13:52:00,28.0,4.0,-100.00,WNW,300,6.0,12.0,36,-99.99,,,-99.99,,2013-11-12 19:52:00,
2013-11-12 14:01:00,28.0,4.0,-100.00,WNW,300,6.0,12.0,36,-99.99,,,-99.99,,2013-11-12 20:01:00,
2013-11-12 14:02:00,29.0,5.0,-100.00,NW,305,6.0,13.0,35,-99.99,,,-99.99,,2013-11-12 20:02:00,
2013-11-12 14:22:00,29.0,5.0,-100.00,NW,305,6.0,13.0,35,-99.99,,,-99.99,,2013-11-12 20:22:00,
2013-11-12 14:32:00,29.0,5.0,-100.00,NW,305,6.0,13.0,35,-99.99,,,-99.99,,2013-11-12 20:32:00,
2013-11-12 14:42:00,29.0,5.0,-100.00,NW,305,6.0,13.0,35,-99.99,,,-99.99,,2013-11-12 20:42:00,
2013-11-12 14:52:00,29.0,5.0,-100.00,NW,305,6.0,13.0,35,-99.99,,,-99.99,,2013-11-12 20:52:00,
2013-11-12 15:01:00,29.0,3.0,-100.00,NW,305,9.0,13.0,33,-99.99,,,-99.99,,2013-11-12 21:01:00,
2013-11-12 15:22:00,29.0,3.0,-100.00,NW,305,9.0,13.0,33,-99.99,,,-99.99,,2013-11-12 21:22:00,
2013-11-12 15:34:00,29.0,3.0,-100.00,NW,305,9.0,13.0,33,-99.99,,,-99.99,,2013-11-12 21:34:00,
2013-11-12 15:44:00,29.0,3.0,-100.00,NW,305,9.0,13.0,33,-99.99,,,-99.99,,2013-11-12 21:44:00,
2013-11-12 15:54:00,29.0,3.0,-100.00,NW,305,9.0,13.0,33,-99.99,,,-99.99,,2013-11-12 21:54:00,
2013-11-12 16:01:00,27.0,2.0,-100.00,West,280,4.0,13.0,34,-99.99,,,-99.99,,2013-11-12 22:01:00,
2013-11-12 16:24:00,27.0,2.0,-100.00,West,280,4.0,13.0,34,-99.99,,,-99.99,,2013-11-12 22:24:00,
2013-11-12 16:33:00,27.0,2.0,-100.00,West,280,4.0,13.0,34,-99.99,,,-99.99,,2013-11-12 22:33:00,
2013-11-12 16:43:00,27.0,2.0,-100.00,West,280,4.0,13.0,34,-99.99,,,-99.99,,2013-11-12 22:43:00,
2013-11-12 16:54:00,27.0,2.0,-100.00,West,280,4.0,13.0,34,-99.99,,,-99.99,,2013-11-12 22:54:00,
2013-11-12 17:02:00,24.0,3.0,-100.00,West,275,3.0,9.0,39,-99.99,,,-99.99,,2013-11-12 23:02:00,
2013-11-12 17:23:00,24.0,3.0,-100.00,West,275,3.0,9.0,39,-99.99,,,-99.99,,2013-11-12 23:23:00,
2013-11-12 17:33:00,24.0,3.0,-100.00,West,275,3.0,9.0,39,-99.99,,,-99.99,,2013-11-12 23:33:00,
2013-11-12 17:42:00,24.0,3.0,-100.00,West,275,3.0,9.0,39,-99.99,,,-99.99,,2013-11-12 23:42:00,
2013-11-12 17:54:00,24.0,3.0,-100.00,West,275,3.0,9.0,39,-99.99,,,-99.99,,2013-11-12 23:54:00,
2013-11-12 18:01:00,23.0,4.0,-100.00,West,275,2.0,7.0,44,-99.99,,,-99.99,,2013-11-13 00:01:00,
2013-11-12 18:22:00,23.0,4.0,-100.00,West,275,2.0,7.0,44,-99.99,,,-99.99,,2013-11-13 00:22:00,
2013-11-12 18:32:00,23.0,4.0,-100.00,West,275,2.0,7.0,44,-99.99,,,-99.99,,2013-11-13 00:32:00,
2013-11-12 18:42:00,23.0,4.0,-100.00,West,275,2.0,7.0,44,-99.99,,,-99.99,,2013-11-13 00:42:00,
2013-11-12 18:52:00,23.0,4.0,-100.00,West,275,2.0,7.0,44,-99.99,,,-99.99,,2013-11-13 00:52:00,
2013-11-12 19:22:00,22.0,6.0,-100.00,West,280,2.0,7.0,50,-99.99,,,-99.99,,2013-11-13 01:22:00,
2013-11-12 19:32:00,22.0,6.0,-100.00,West,280,2.0,7.0,50,-99.99,,,-99.99,,2013-11-13 01:32:00,
2013-11-12 19:42:00,22.0,6.0,-100.00,West,280,2.0,7.0,50,-99.99,,,-99.99,,2013-11-13 01:42:00,
2013-11-12 19:52:00,22.0,6.0,-100.00,West,280,2.0,7.0,50,-99.99,,,-99.99,,2013-11-13 01:52:00,
2013-11-12 20:01:00,22.0,6.0,-100.00,West,280,2.0,7.0,50,-99.99,,,-99.99,,2013-11-13 02:01:00,
2013-11-12 20:22:00,21.0,7.0,-100.00,West,270,3.0,8.0,53,-99.99,,,-99.99,,2013-11-13 02:22:00,
2013-11-12 20:32:00,21.0,7.0,-100.00,West,270,3.0,8.0,53,-99.99,,,-99.99,,2013-11-13 02:32:00,
2013-11-12 20:42:00,21.0,7.0,-100.00,West,270,3.0,8.0,53,-99.99,,,-99.99,,2013-11-13 02:42:00,
2013-11-12 20:52:00,21.0,7.0,-100.00,West,270,3.0,8.0,53,-99.99,,,-99.99,,2013-11-13 02:52:00,
2013-11-12 21:02:00,21.0,7.0,-100.00,West,270,3.0,8.0,53,-99.99,,,-99.99,,2013-11-13 03:02:00,
2013-11-12 21:22:00,20.0,8.0,-100.00,SW,225,2.0,4.0,60,-99.99,,,-99.99,,2013-11-13 03:22:00,
2013-11-12 21:34:00,20.0,8.0,-100.00,SW,225,2.0,4.0,60,-99.99,,,-99.99,,2013-11-13 03:34:00,
2013-11-12 21:45:00,20.0,8.0,-100.00,SW,225,2.0,4.0,60,-99.99,,,-99.99,,2013-11-13 03:45:00,
2013-11-12 21:54:00,20.0,8.0,-100.00,SW,225,2.0,4.0,60,-99.99,,,-99.99,,2013-11-13 03:54:00,
2013-11-12 22:03:00,19.0,10.0,-100.00,West,280,2.0,5.0,68,-99.99,,,-99.99,,2013-11-13 04:03:00,
2013-11-12 22:23:00,19.0,10.0,-100.00,West,280,2.0,5.0,68,-99.99,,,-99.99,,2013-11-13 04:23:00,
2013-11-12 22:34:00,19.0,10.0,-100.00,West,280,2.0,5.0,68,-99.99,,,-99.99,,2013-11-13 04:34:00,
2013-11-12 22:43:00,19.0,10.0,-100.00,West,280,2.0,5.0,68,-99.99,,,-99.99,,2013-11-13 04:43:00,
2013-11-12 22:53:00,19.0,10.0,-100.00,West,280,2.0,5.0,68,-99.99,,,-99.99,,2013-11-13 04:53:00,
2013-11-12 23:23:00,19.0,11.0,-100.00,West,260,3.0,7.0,71,-99.99,,,-99.99,,2013-11-13 05:23:00,
2013-11-12 23:33:00,19.0,11.0,-100.00,West,260,3.0,7.0,71,-99.99,,,-99.99,,2013-11-13 05:33:00,
2013-11-12 23:43:00,19.0,11.0,-100.00,West,260,3.0,7.0,71,-99.99,,,-99.99,,2013-11-13 05:43:00,
2013-11-12 23:54:00,19.0,11.0,-100.00,West,260,3.0,7.0,71,-99.99,,,-99.99,,2013-11-13 05:54:00,